sensor_id;sensor_type;location;lat;lon;timestamp;temperature;humidity
33011;DHT22;19370;48.562;9.196;2022-09-21T00:00:39;8.40;99.90
33011;DHT22;19370;48.562;9.196;2022-09-21T00:03:05;8.30;99.90
33011;DHT22;19370;48.562;9.196;2022-09-21T00:05:32;8.30;99.90
33011;DHT22;19370;48.562;9.196;2022-09-21T00:08:02;8.30;99.90
33011;DHT22;19370;48.562;9.196;2022-09-21T00:10:29;8.30;99.90
33011;DHT22;19370;48.562;9.196;2022-09-21T00:12:56;8.30;99.90
33011;DHT22;19370;48.562;9.196;2022-09-21T00:15:22;8.20;99.90
33011;DHT22;19370;48.562;9.196;2022-09-21T00:17:51;8.20;99.90
33011;DHT22;19370;48.562;9.196;2022-09-21T00:20:18;8.20;99.90
33011;DHT22;19370;48.562;9.196;2022-09-21T00:22:46;8.20;99.90
33011;DHT22;19370;48.562;9.196;2022-09-21T00:25:12;8.20;99.90
33011;DHT22;19370;48.562;9.196;2022-09-21T00:27:38;8.10;99.90
33011;DHT22;19370;48.562;9.196;2022-09-21T00:30:04;8.10;99.90
33011;DHT22;19370;48.562;9.196;2022-09-21T00:32:32;8.10;99.90
33011;DHT22;19370;48.562;9.196;2022-09-21T00:34:59;8.10;99.90
33011;DHT22;19370;48.562;9.196;2022-09-21T00:37:26;8.10;99.90
33011;DHT22;19370;48.562;9.196;2022-09-21T00:39:52;8.10;99.90
33011;DHT22;19370;48.562;9.196;2022-09-21T00:42:27;8.20;99.90
33011;DHT22;19370;48.562;9.196;2022-09-21T00:44:54;8.10;99.90
33011;DHT22;19370;48.562;9.196;2022-09-21T00:47:30;8.10;99.90
33011;DHT22;19370;48.562;9.196;2022-09-21T00:49:59;8.00;99.90
33011;DHT22;19370;48.562;9.196;2022-09-21T00:52:29;8.10;99.90
33011;DHT22;19370;48.562;9.196;2022-09-21T00:55:11;8.10;99.90
33011;DHT22;19370;48.562;9.196;2022-09-21T00:57:39;8.10;99.90
33011;DHT22;19370;48.562;9.196;2022-09-21T01:00:08;8.10;99.90
33011;DHT22;19370;48.562;9.196;2022-09-21T01:02:35;8.00;99.90
33011;DHT22;19370;48.562;9.196;2022-09-21T01:05:04;8.00;99.90
33011;DHT22;19370;48.562;9.196;2022-09-21T01:07:32;8.00;99.90
33011;DHT22;19370;48.562;9.196;2022-09-21T01:10:02;7.90;99.90
33011;DHT22;19370;48.562;9.196;2022-09-21T01:31:39;7.90;99.90
33011;DHT22;19370;48.562;9.196;2022-09-21T01:34:15;7.80;99.90
33011;DHT22;19370;48.562;9.196;2022-09-21T01:36:46;7.70;99.90
33011;DHT22;19370;48.562;9.196;2022-09-21T01:39:13;7.70;99.90
33011;DHT22;19370;48.562;9.196;2022-09-21T01:41:42;7.70;99.90
33011;DHT22;19370;48.562;9.196;2022-09-21T01:44:14;7.60;99.90
33011;DHT22;19370;48.562;9.196;2022-09-21T01:46:41;7.60;99.90
33011;DHT22;19370;48.562;9.196;2022-09-21T01:49:26;7.60;99.90
33011;DHT22;19370;48.562;9.196;2022-09-21T01:51:59;7.60;99.90
33011;DHT22;19370;48.562;9.196;2022-09-21T01:54:32;7.50;99.90
33011;DHT22;19370;48.562;9.196;2022-09-21T01:57:09;7.60;99.90
33011;DHT22;19370;48.562;9.196;2022-09-21T01:59:57;7.50;99.90
33011;DHT22;19370;48.562;9.196;2022-09-21T02:02:48;7.50;99.90
33011;DHT22;19370;48.562;9.196;2022-09-21T02:05:17;7.50;99.90
33011;DHT22;19370;48.562;9.196;2022-09-21T02:07:44;7.50;99.90
33011;DHT22;19370;48.562;9.196;2022-09-21T02:10:23;7.40;99.90
33011;DHT22;19370;48.562;9.196;2022-09-21T02:12:54;7.40;99.90
33011;DHT22;19370;48.562;9.196;2022-09-21T02:18:06;7.30;99.90
33011;DHT22;19370;48.562;9.196;2022-09-21T02:20:44;7.40;99.90
33011;DHT22;19370;48.562;9.196;2022-09-21T02:23:34;7.30;99.90
33011;DHT22;19370;48.562;9.196;2022-09-21T02:26:12;7.30;99.90
33011;DHT22;19370;48.562;9.196;2022-09-21T02:34:03;7.20;99.90
33011;DHT22;19370;48.562;9.196;2022-09-21T02:36:43;7.20;99.90
33011;DHT22;19370;48.562;9.196;2022-09-21T02:39:16;7.10;99.90
33011;DHT22;19370;48.562;9.196;2022-09-21T02:41:57;7.20;99.90
33011;DHT22;19370;48.562;9.196;2022-09-21T02:44:37;7.20;99.90
33011;DHT22;19370;48.562;9.196;2022-09-21T02:47:21;7.20;99.90
33011;DHT22;19370;48.562;9.196;2022-09-21T02:49:51;7.20;99.90
33011;DHT22;19370;48.562;9.196;2022-09-21T02:52:20;7.20;99.90
33011;DHT22;19370;48.562;9.196;2022-09-21T02:54:51;7.20;99.90
33011;DHT22;19370;48.562;9.196;2022-09-21T02:57:21;7.10;99.90
33011;DHT22;19370;48.562;9.196;2022-09-21T02:59:48;7.10;99.90
33011;DHT22;19370;48.562;9.196;2022-09-21T03:02:14;7.10;99.90
33011;DHT22;19370;48.562;9.196;2022-09-21T03:04:42;7.00;99.90
33011;DHT22;19370;48.562;9.196;2022-09-21T03:07:13;7.10;99.90
33011;DHT22;19370;48.562;9.196;2022-09-21T03:09:39;7.00;99.90
33011;DHT22;19370;48.562;9.196;2022-09-21T03:12:05;7.00;99.90
33011;DHT22;19370;48.562;9.196;2022-09-21T03:14:31;6.90;99.90
33011;DHT22;19370;48.562;9.196;2022-09-21T03:16:58;7.00;99.90
33011;DHT22;19370;48.562;9.196;2022-09-21T03:19:23;6.90;99.90
33011;DHT22;19370;48.562;9.196;2022-09-21T03:21:50;6.90;99.90
33011;DHT22;19370;48.562;9.196;2022-09-21T03:24:16;6.90;99.90
33011;DHT22;19370;48.562;9.196;2022-09-21T03:27:01;6.90;99.90
33011;DHT22;19370;48.562;9.196;2022-09-21T03:29:27;6.90;99.90
33011;DHT22;19370;48.562;9.196;2022-09-21T03:31:53;6.90;99.90
33011;DHT22;19370;48.562;9.196;2022-09-21T03:34:19;6.90;99.90
33011;DHT22;19370;48.562;9.196;2022-09-21T03:36:45;6.90;99.90
33011;DHT22;19370;48.562;9.196;2022-09-21T03:39:12;6.90;99.90
33011;DHT22;19370;48.562;9.196;2022-09-21T03:41:38;6.90;99.90
33011;DHT22;19370;48.562;9.196;2022-09-21T03:44:04;6.90;99.90
33011;DHT22;19370;48.562;9.196;2022-09-21T03:46:30;6.80;99.90
33011;DHT22;19370;48.562;9.196;2022-09-21T03:49:00;6.80;99.90
33011;DHT22;19370;48.562;9.196;2022-09-21T03:51:28;6.70;99.90
33011;DHT22;19370;48.562;9.196;2022-09-21T03:53:56;6.70;99.90
33011;DHT22;19370;48.562;9.196;2022-09-21T03:56:22;6.70;99.90
33011;DHT22;19370;48.562;9.196;2022-09-21T03:58:48;6.60;99.90
33011;DHT22;19370;48.562;9.196;2022-09-21T04:01:14;6.70;99.90
33011;DHT22;19370;48.562;9.196;2022-09-21T04:03:39;6.60;99.90
33011;DHT22;19370;48.562;9.196;2022-09-21T04:06:11;6.60;99.90
33011;DHT22;19370;48.562;9.196;2022-09-21T04:08:38;6.60;99.90
33011;DHT22;19370;48.562;9.196;2022-09-21T04:11:12;6.70;99.90
33011;DHT22;19370;48.562;9.196;2022-09-21T04:13:39;6.60;99.90
33011;DHT22;19370;48.562;9.196;2022-09-21T04:16:04;6.60;99.90
33011;DHT22;19370;48.562;9.196;2022-09-21T04:18:30;6.60;99.90
33011;DHT22;19370;48.562;9.196;2022-09-21T04:20:57;6.60;99.90
33011;DHT22;19370;48.562;9.196;2022-09-21T04:23:23;6.60;99.90
33011;DHT22;19370;48.562;9.196;2022-09-21T04:25:48;6.60;99.90
33011;DHT22;19370;48.562;9.196;2022-09-21T04:28:17;6.50;99.90
33011;DHT22;19370;48.562;9.196;2022-09-21T04:30:43;6.50;99.90
33011;DHT22;19370;48.562;9.196;2022-09-21T04:33:09;6.50;99.90
33011;DHT22;19370;48.562;9.196;2022-09-21T04:35:35;6.40;99.90
33011;DHT22;19370;48.562;9.196;2022-09-21T04:38:00;6.40;99.90
33011;DHT22;19370;48.562;9.196;2022-09-21T04:40:26;6.40;99.90
33011;DHT22;19370;48.562;9.196;2022-09-21T04:42:52;6.40;99.90
33011;DHT22;19370;48.562;9.196;2022-09-21T04:45:19;6.30;99.90
33011;DHT22;19370;48.562;9.196;2022-09-21T04:47:45;6.30;99.90
33011;DHT22;19370;48.562;9.196;2022-09-21T04:50:11;6.20;99.90
33011;DHT22;19370;48.562;9.196;2022-09-21T04:52:36;6.10;99.90
33011;DHT22;19370;48.562;9.196;2022-09-21T04:55:02;6.10;99.90
33011;DHT22;19370;48.562;9.196;2022-09-21T04:57:28;6.20;99.90
33011;DHT22;19370;48.562;9.196;2022-09-21T04:59:54;6.10;99.90
33011;DHT22;19370;48.562;9.196;2022-09-21T05:02:20;6.20;99.90
33011;DHT22;19370;48.562;9.196;2022-09-21T05:04:46;6.10;99.90
33011;DHT22;19370;48.562;9.196;2022-09-21T05:07:11;6.20;99.90
33011;DHT22;19370;48.562;9.196;2022-09-21T05:09:37;6.20;99.90
33011;DHT22;19370;48.562;9.196;2022-09-21T05:12:21;6.20;99.90
33011;DHT22;19370;48.562;9.196;2022-09-21T05:14:47;6.20;99.90
33011;DHT22;19370;48.562;9.196;2022-09-21T05:17:12;6.30;99.90
33011;DHT22;19370;48.562;9.196;2022-09-21T05:19:39;6.20;99.90
33011;DHT22;19370;48.562;9.196;2022-09-21T05:22:05;6.20;99.90
33011;DHT22;19370;48.562;9.196;2022-09-21T05:24:30;6.20;99.90
33011;DHT22;19370;48.562;9.196;2022-09-21T05:26:56;6.10;99.90
33011;DHT22;19370;48.562;9.196;2022-09-21T05:29:22;6.10;99.90
33011;DHT22;19370;48.562;9.196;2022-09-21T05:31:57;6.10;99.90
33011;DHT22;19370;48.562;9.196;2022-09-21T05:39:33;6.20;99.90
33011;DHT22;19370;48.562;9.196;2022-09-21T05:42:00;6.20;99.90
33011;DHT22;19370;48.562;9.196;2022-09-21T05:44:26;6.30;99.90
33011;DHT22;19370;48.562;9.196;2022-09-21T05:46:58;6.30;99.90
33011;DHT22;19370;48.562;9.196;2022-09-21T05:49:47;6.40;99.90
33011;DHT22;19370;48.562;9.196;2022-09-21T05:52:39;6.40;99.90
33011;DHT22;19370;48.562;9.196;2022-09-21T05:55:44;6.50;99.90
33011;DHT22;19370;48.562;9.196;2022-09-21T06:01:00;6.50;99.90
33011;DHT22;19370;48.562;9.196;2022-09-21T06:03:29;6.60;99.90
33011;DHT22;19370;48.562;9.196;2022-09-21T06:05:56;6.60;99.90
33011;DHT22;19370;48.562;9.196;2022-09-21T06:08:24;6.70;99.90
33011;DHT22;19370;48.562;9.196;2022-09-21T06:10:50;6.60;99.90
33011;DHT22;19370;48.562;9.196;2022-09-21T06:13:16;6.70;99.90
33011;DHT22;19370;48.562;9.196;2022-09-21T06:15:42;6.80;99.90
33011;DHT22;19370;48.562;9.196;2022-09-21T06:18:08;6.90;99.90
33011;DHT22;19370;48.562;9.196;2022-09-21T06:20:35;7.00;99.90
33011;DHT22;19370;48.562;9.196;2022-09-21T06:23:06;7.10;99.90
33011;DHT22;19370;48.562;9.196;2022-09-21T06:25:33;7.20;99.90
33011;DHT22;19370;48.562;9.196;2022-09-21T06:28:10;7.30;99.90
33011;DHT22;19370;48.562;9.196;2022-09-21T06:30:37;7.50;99.90
33011;DHT22;19370;48.562;9.196;2022-09-21T06:33:05;7.60;99.90
33011;DHT22;19370;48.562;9.196;2022-09-21T06:35:33;7.70;99.90
33011;DHT22;19370;48.562;9.196;2022-09-21T06:38:03;7.80;99.90
33011;DHT22;19370;48.562;9.196;2022-09-21T06:40:30;7.80;99.90
33011;DHT22;19370;48.562;9.196;2022-09-21T06:43:00;7.80;99.90
33011;DHT22;19370;48.562;9.196;2022-09-21T06:45:27;7.80;99.90
33011;DHT22;19370;48.562;9.196;2022-09-21T06:47:53;7.80;99.90
33011;DHT22;19370;48.562;9.196;2022-09-21T06:50:19;7.90;99.90
33011;DHT22;19370;48.562;9.196;2022-09-21T06:52:45;8.00;99.90
33011;DHT22;19370;48.562;9.196;2022-09-21T06:55:12;8.00;99.90
33011;DHT22;19370;48.562;9.196;2022-09-21T06:57:38;8.10;99.90
33011;DHT22;19370;48.562;9.196;2022-09-21T07:00:06;8.10;99.90
33011;DHT22;19370;48.562;9.196;2022-09-21T07:02:32;8.20;99.90
33011;DHT22;19370;48.562;9.196;2022-09-21T07:04:58;8.10;99.90
33011;DHT22;19370;48.562;9.196;2022-09-21T07:07:24;8.10;99.90
33011;DHT22;19370;48.562;9.196;2022-09-21T07:09:50;8.20;99.90
33011;DHT22;19370;48.562;9.196;2022-09-21T07:12:17;8.10;99.90
33011;DHT22;19370;48.562;9.196;2022-09-21T07:14:43;8.10;99.90
33011;DHT22;19370;48.562;9.196;2022-09-21T07:17:10;8.30;99.90
33011;DHT22;19370;48.562;9.196;2022-09-21T07:19:36;8.30;99.90
33011;DHT22;19370;48.562;9.196;2022-09-21T07:22:01;8.40;99.90
33011;DHT22;19370;48.562;9.196;2022-09-21T07:24:28;8.60;99.90
33011;DHT22;19370;48.562;9.196;2022-09-21T07:26:53;8.70;99.90
33011;DHT22;19370;48.562;9.196;2022-09-21T07:29:19;8.90;99.90
33011;DHT22;19370;48.562;9.196;2022-09-21T07:31:45;9.00;99.90
33011;DHT22;19370;48.562;9.196;2022-09-21T07:34:13;9.10;99.90
33011;DHT22;19370;48.562;9.196;2022-09-21T07:36:39;9.20;99.90
33011;DHT22;19370;48.562;9.196;2022-09-21T07:39:04;9.40;99.90
33011;DHT22;19370;48.562;9.196;2022-09-21T07:41:30;9.50;99.90
33011;DHT22;19370;48.562;9.196;2022-09-21T07:43:56;9.60;99.90
33011;DHT22;19370;48.562;9.196;2022-09-21T07:46:22;9.60;99.90
33011;DHT22;19370;48.562;9.196;2022-09-21T07:48:47;9.80;99.90
33011;DHT22;19370;48.562;9.196;2022-09-21T07:51:14;9.80;99.90
33011;DHT22;19370;48.562;9.196;2022-09-21T07:53:42;9.90;99.90
33011;DHT22;19370;48.562;9.196;2022-09-21T07:56:16;9.90;99.90
33011;DHT22;19370;48.562;9.196;2022-09-21T07:58:43;10.10;99.90
33011;DHT22;19370;48.562;9.196;2022-09-21T08:01:28;10.10;99.90
33011;DHT22;19370;48.562;9.196;2022-09-21T08:03:56;10.30;99.90
33011;DHT22;19370;48.562;9.196;2022-09-21T08:06:23;10.50;99.90
33011;DHT22;19370;48.562;9.196;2022-09-21T08:08:50;10.60;99.90
33011;DHT22;19370;48.562;9.196;2022-09-21T08:11:17;10.80;99.90
33011;DHT22;19370;48.562;9.196;2022-09-21T08:13:44;11.00;99.90
33011;DHT22;19370;48.562;9.196;2022-09-21T08:16:10;11.20;99.90
33011;DHT22;19370;48.562;9.196;2022-09-21T08:18:38;11.30;99.90
33011;DHT22;19370;48.562;9.196;2022-09-21T08:21:04;11.50;99.90
33011;DHT22;19370;48.562;9.196;2022-09-21T08:23:30;11.50;99.90
33011;DHT22;19370;48.562;9.196;2022-09-21T08:26:02;11.40;99.90
33011;DHT22;19370;48.562;9.196;2022-09-21T08:28:28;11.50;99.90
33011;DHT22;19370;48.562;9.196;2022-09-21T08:31:06;11.50;99.90
33011;DHT22;19370;48.562;9.196;2022-09-21T08:33:35;11.70;99.90
33011;DHT22;19370;48.562;9.196;2022-09-21T08:36:02;11.70;99.90
33011;DHT22;19370;48.562;9.196;2022-09-21T08:38:32;12.00;99.90
33011;DHT22;19370;48.562;9.196;2022-09-21T08:40:58;12.00;99.90
33011;DHT22;19370;48.562;9.196;2022-09-21T08:45:57;12.40;99.90
33011;DHT22;19370;48.562;9.196;2022-09-21T08:48:30;12.50;99.90
33011;DHT22;19370;48.562;9.196;2022-09-21T08:51:04;12.60;99.90
33011;DHT22;19370;48.562;9.196;2022-09-21T08:53:45;12.80;99.90
33011;DHT22;19370;48.562;9.196;2022-09-21T08:56:13;13.00;99.90
33011;DHT22;19370;48.562;9.196;2022-09-21T08:58:40;13.10;99.90
33011;DHT22;19370;48.562;9.196;2022-09-21T09:04:19;13.30;99.90
33011;DHT22;19370;48.562;9.196;2022-09-21T09:07:24;13.60;99.90
33011;DHT22;19370;48.562;9.196;2022-09-21T09:10:37;13.70;99.90
33011;DHT22;19370;48.562;9.196;2022-09-21T09:18:44;13.90;99.90
33011;DHT22;19370;48.562;9.196;2022-09-21T09:21:37;14.20;99.90
33011;DHT22;19370;48.562;9.196;2022-09-21T09:24:03;14.60;99.90
33011;DHT22;19370;48.562;9.196;2022-09-21T09:26:59;14.50;99.90
33011;DHT22;19370;48.562;9.196;2022-09-21T09:29:36;14.50;99.90
33011;DHT22;19370;48.562;9.196;2022-09-21T09:32:10;14.70;99.90
33011;DHT22;19370;48.562;9.196;2022-09-21T09:34:54;14.80;99.90
33011;DHT22;19370;48.562;9.196;2022-09-21T09:37:27;15.00;99.90
33011;DHT22;19370;48.562;9.196;2022-09-21T09:39:56;15.00;99.90
33011;DHT22;19370;48.562;9.196;2022-09-21T09:50:34;15.50;99.90
33011;DHT22;19370;48.562;9.196;2022-09-21T09:53:13;15.70;99.90
33011;DHT22;19370;48.562;9.196;2022-09-21T09:55:43;16.10;99.90
33011;DHT22;19370;48.562;9.196;2022-09-21T09:58:38;16.10;99.90
33011;DHT22;19370;48.562;9.196;2022-09-21T10:01:06;16.30;99.90
33011;DHT22;19370;48.562;9.196;2022-09-21T10:03:32;16.50;99.90
33011;DHT22;19370;48.562;9.196;2022-09-21T10:05:58;16.60;99.90
33011;DHT22;19370;48.562;9.196;2022-09-21T10:08:40;16.60;99.90
33011;DHT22;19370;48.562;9.196;2022-09-21T10:11:07;16.90;99.90
33011;DHT22;19370;48.562;9.196;2022-09-21T10:13:42;16.90;99.90
33011;DHT22;19370;48.562;9.196;2022-09-21T10:21:39;17.50;99.90
33011;DHT22;19370;48.562;9.196;2022-09-21T10:24:25;17.70;99.90
33011;DHT22;19370;48.562;9.196;2022-09-21T10:26:54;17.70;99.90
33011;DHT22;19370;48.562;9.196;2022-09-21T10:32:04;17.90;99.90
33011;DHT22;19370;48.562;9.196;2022-09-21T10:34:33;18.20;99.90
33011;DHT22;19370;48.562;9.196;2022-09-21T10:37:01;18.20;99.90
33011;DHT22;19370;48.562;9.196;2022-09-21T10:39:31;18.50;99.90
33011;DHT22;19370;48.562;9.196;2022-09-21T10:42:15;18.60;99.40
33011;DHT22;19370;48.562;9.196;2022-09-21T10:47:22;18.80;99.40
33011;DHT22;19370;48.562;9.196;2022-09-21T10:49:55;19.10;97.50
33011;DHT22;19370;48.562;9.196;2022-09-21T10:52:31;19.40;97.70
33011;DHT22;19370;48.562;9.196;2022-09-21T10:54:58;19.50;98.60
33011;DHT22;19370;48.562;9.196;2022-09-21T10:57:25;19.60;96.80
33011;DHT22;19370;48.562;9.196;2022-09-21T10:59:52;19.70;96.10
33011;DHT22;19370;48.562;9.196;2022-09-21T11:02:37;19.80;95.40
33011;DHT22;19370;48.562;9.196;2022-09-21T11:05:14;19.90;96.40
33011;DHT22;19370;48.562;9.196;2022-09-21T11:07:53;19.80;95.30
33011;DHT22;19370;48.562;9.196;2022-09-21T11:10:56;18.80;94.90
33011;DHT22;19370;48.562;9.196;2022-09-21T11:13:39;19.00;95.90
33011;DHT22;19370;48.562;9.196;2022-09-21T11:24:37;20.10;93.80
33011;DHT22;19370;48.562;9.196;2022-09-21T11:44:00;21.00;90.00
33011;DHT22;19370;48.562;9.196;2022-09-21T11:47:01;21.30;90.30
33011;DHT22;19370;48.562;9.196;2022-09-21T11:52:37;20.50;86.50
33011;DHT22;19370;48.562;9.196;2022-09-21T11:58:02;20.30;89.10
33011;DHT22;19370;48.562;9.196;2022-09-21T12:00:48;20.80;86.40
33011;DHT22;19370;48.562;9.196;2022-09-21T12:06:20;21.60;80.90
33011;DHT22;19370;48.562;9.196;2022-09-21T12:14:24;22.00;81.70
33011;DHT22;19370;48.562;9.196;2022-09-21T12:19:49;22.00;79.40
33011;DHT22;19370;48.562;9.196;2022-09-21T12:22:32;22.00;78.40
33011;DHT22;19370;48.562;9.196;2022-09-21T12:27:35;22.00;78.20
33011;DHT22;19370;48.562;9.196;2022-09-21T12:33:00;22.40;74.40
33011;DHT22;19370;48.562;9.196;2022-09-21T12:35:56;22.30;73.80
33011;DHT22;19370;48.562;9.196;2022-09-21T12:38:38;22.20;72.10
33011;DHT22;19370;48.562;9.196;2022-09-21T12:44:03;22.70;71.40
33011;DHT22;19370;48.562;9.196;2022-09-21T12:46:46;22.80;69.00
33011;DHT22;19370;48.562;9.196;2022-09-21T12:49:26;23.30;70.30
33011;DHT22;19370;48.562;9.196;2022-09-21T12:51:59;23.50;68.20
33011;DHT22;19370;48.562;9.196;2022-09-21T12:54:45;23.50;67.70
33011;DHT22;19370;48.562;9.196;2022-09-21T13:02:45;23.40;62.60
33011;DHT22;19370;48.562;9.196;2022-09-21T13:08:12;23.40;62.50
33011;DHT22;19370;48.562;9.196;2022-09-21T13:10:55;23.60;63.30
33011;DHT22;19370;48.562;9.196;2022-09-21T13:13:28;23.70;63.30
33011;DHT22;19370;48.562;9.196;2022-09-21T13:15:56;23.70;60.30
33011;DHT22;19370;48.562;9.196;2022-09-21T13:18:37;23.10;63.90
33011;DHT22;19370;48.562;9.196;2022-09-21T13:21:15;22.70;62.70
33011;DHT22;19370;48.562;9.196;2022-09-21T13:23:41;22.90;62.70
33011;DHT22;19370;48.562;9.196;2022-09-21T13:26:11;22.90;62.90
33011;DHT22;19370;48.562;9.196;2022-09-21T13:29:03;22.20;63.30
33011;DHT22;19370;48.562;9.196;2022-09-21T13:31:58;21.00;64.10
33011;DHT22;19370;48.562;9.196;2022-09-21T13:37:13;19.80;70.20
33011;DHT22;19370;48.562;9.196;2022-09-21T13:47:41;21.40;59.50
33011;DHT22;19370;48.562;9.196;2022-09-21T13:50:23;20.90;61.70
33011;DHT22;19370;48.562;9.196;2022-09-21T13:53:05;21.40;62.80
33011;DHT22;19370;48.562;9.196;2022-09-21T13:55:33;22.00;61.80
33011;DHT22;19370;48.562;9.196;2022-09-21T13:58:06;22.70;58.50
33011;DHT22;19370;48.562;9.196;2022-09-21T14:00:42;23.30;58.20
33011;DHT22;19370;48.562;9.196;2022-09-21T14:03:37;23.70;56.70
33011;DHT22;19370;48.562;9.196;2022-09-21T14:08:39;24.50;54.20
33011;DHT22;19370;48.562;9.196;2022-09-21T14:11:16;24.60;52.50
33011;DHT22;19370;48.562;9.196;2022-09-21T14:13:58;24.50;52.80
33011;DHT22;19370;48.562;9.196;2022-09-21T14:18:54;24.60;54.50
33011;DHT22;19370;48.562;9.196;2022-09-21T14:21:23;24.00;54.00
33011;DHT22;19370;48.562;9.196;2022-09-21T14:24:18;23.40;56.00
33011;DHT22;19370;48.562;9.196;2022-09-21T14:26:46;22.30;55.70
33011;DHT22;19370;48.562;9.196;2022-09-21T14:32:12;22.00;56.10
33011;DHT22;19370;48.562;9.196;2022-09-21T14:34:41;21.30;55.80
33011;DHT22;19370;48.562;9.196;2022-09-21T14:37:30;20.30;57.30
33011;DHT22;19370;48.562;9.196;2022-09-21T14:39:57;20.00;60.10
33011;DHT22;19370;48.562;9.196;2022-09-21T14:42:27;21.50;59.30
33011;DHT22;19370;48.562;9.196;2022-09-21T14:45:00;23.40;56.00
33011;DHT22;19370;48.562;9.196;2022-09-21T14:48:07;24.70;53.00
33011;DHT22;19370;48.562;9.196;2022-09-21T14:50:38;25.80;50.40
33011;DHT22;19370;48.562;9.196;2022-09-21T15:06:40;28.50;46.80
33011;DHT22;19370;48.562;9.196;2022-09-21T15:12:24;27.60;44.40
33011;DHT22;19370;48.562;9.196;2022-09-21T15:15:31;26.00;47.80
33011;DHT22;19370;48.562;9.196;2022-09-21T15:17:59;26.30;47.50
33011;DHT22;19370;48.562;9.196;2022-09-21T15:20:29;27.40;46.80
33011;DHT22;19370;48.562;9.196;2022-09-21T15:23:17;28.30;45.30
33011;DHT22;19370;48.562;9.196;2022-09-21T15:25:56;28.50;44.60
33011;DHT22;19370;48.562;9.196;2022-09-21T15:28:26;27.10;44.40
33011;DHT22;19370;48.562;9.196;2022-09-21T15:30:56;24.90;46.20
33011;DHT22;19370;48.562;9.196;2022-09-21T15:33:22;23.10;50.30
33011;DHT22;19370;48.562;9.196;2022-09-21T15:35:48;21.70;53.50
33011;DHT22;19370;48.562;9.196;2022-09-21T15:38:29;20.70;54.80
33011;DHT22;19370;48.562;9.196;2022-09-21T15:40:55;19.70;56.80
33011;DHT22;19370;48.562;9.196;2022-09-21T15:43:20;19.00;58.70
33011;DHT22;19370;48.562;9.196;2022-09-21T15:46:01;18.40;59.80
33011;DHT22;19370;48.562;9.196;2022-09-21T15:48:38;18.00;61.50
33011;DHT22;19370;48.562;9.196;2022-09-21T15:51:30;17.60;62.80
33011;DHT22;19370;48.562;9.196;2022-09-21T15:54:06;17.70;62.00
33011;DHT22;19370;48.562;9.196;2022-09-21T15:56:33;17.70;61.00
33011;DHT22;19370;48.562;9.196;2022-09-21T15:59:05;17.50;61.50
33011;DHT22;19370;48.562;9.196;2022-09-21T16:01:40;17.90;62.00
33011;DHT22;19370;48.562;9.196;2022-09-21T16:04:07;17.90;60.90
33011;DHT22;19370;48.562;9.196;2022-09-21T16:06:40;18.20;59.30
33011;DHT22;19370;48.562;9.196;2022-09-21T16:12:42;19.30;57.70
33011;DHT22;19370;48.562;9.196;2022-09-21T16:15:25;20.70;57.10
33011;DHT22;19370;48.562;9.196;2022-09-21T16:18:27;23.60;53.20
33011;DHT22;19370;48.562;9.196;2022-09-21T16:20:54;25.20;50.30
33011;DHT22;19370;48.562;9.196;2022-09-21T16:23:21;26.60;48.60
33011;DHT22;19370;48.562;9.196;2022-09-21T16:25:53;26.70;48.40
33011;DHT22;19370;48.562;9.196;2022-09-21T16:30:51;27.70;44.80
33011;DHT22;19370;48.562;9.196;2022-09-21T16:38:44;28.00;43.20
33011;DHT22;19370;48.562;9.196;2022-09-21T16:41:12;27.90;44.00
33011;DHT22;19370;48.562;9.196;2022-09-21T16:43:39;27.60;43.70
33011;DHT22;19370;48.562;9.196;2022-09-21T16:46:09;27.10;43.30
33011;DHT22;19370;48.562;9.196;2022-09-21T16:48:38;24.20;44.40
33011;DHT22;19370;48.562;9.196;2022-09-21T16:51:10;21.90;49.50
33011;DHT22;19370;48.562;9.196;2022-09-21T16:53:36;20.20;52.50
33011;DHT22;19370;48.562;9.196;2022-09-21T16:56:02;19.00;56.30
33011;DHT22;19370;48.562;9.196;2022-09-21T16:58:28;18.00;58.80
33011;DHT22;19370;48.562;9.196;2022-09-21T17:00:55;17.30;60.30
33011;DHT22;19370;48.562;9.196;2022-09-21T17:03:22;16.70;63.60
33011;DHT22;19370;48.562;9.196;2022-09-21T17:05:49;16.30;65.70
33011;DHT22;19370;48.562;9.196;2022-09-21T17:08:14;15.90;67.20
33011;DHT22;19370;48.562;9.196;2022-09-21T17:10:44;15.50;67.70
33011;DHT22;19370;48.562;9.196;2022-09-21T17:13:11;15.30;69.10
33011;DHT22;19370;48.562;9.196;2022-09-21T17:15:43;15.10;70.20
33011;DHT22;19370;48.562;9.196;2022-09-21T17:18:13;14.90;71.40
33011;DHT22;19370;48.562;9.196;2022-09-21T17:20:42;14.70;71.70
33011;DHT22;19370;48.562;9.196;2022-09-21T17:23:08;14.60;72.50
33011;DHT22;19370;48.562;9.196;2022-09-21T17:25:35;14.40;73.30
33011;DHT22;19370;48.562;9.196;2022-09-21T17:28:03;14.30;74.30
33011;DHT22;19370;48.562;9.196;2022-09-21T17:30:30;14.20;75.60
33011;DHT22;19370;48.562;9.196;2022-09-21T17:32:56;14.10;76.50
33011;DHT22;19370;48.562;9.196;2022-09-21T17:35:37;14.00;76.80
33011;DHT22;19370;48.562;9.196;2022-09-21T17:38:06;13.90;76.60
33011;DHT22;19370;48.562;9.196;2022-09-21T17:40:34;13.70;77.80
33011;DHT22;19370;48.562;9.196;2022-09-21T17:46:11;13.40;79.70
33011;DHT22;19370;48.562;9.196;2022-09-21T17:48:38;13.30;81.20
33011;DHT22;19370;48.562;9.196;2022-09-21T17:51:04;13.20;82.60
33011;DHT22;19370;48.562;9.196;2022-09-21T17:53:30;13.10;83.00
33011;DHT22;19370;48.562;9.196;2022-09-21T18:01:46;12.80;85.50
33011;DHT22;19370;48.562;9.196;2022-09-21T18:04:13;12.70;85.80
33011;DHT22;19370;48.562;9.196;2022-09-21T18:06:39;12.60;86.20
33011;DHT22;19370;48.562;9.196;2022-09-21T18:09:05;12.60;86.60
33011;DHT22;19370;48.562;9.196;2022-09-21T18:12:15;12.50;86.20
33011;DHT22;19370;48.562;9.196;2022-09-21T18:20:17;12.30;89.30
33011;DHT22;19370;48.562;9.196;2022-09-21T18:23:00;12.20;89.50
33011;DHT22;19370;48.562;9.196;2022-09-21T18:25:37;12.20;90.20
33011;DHT22;19370;48.562;9.196;2022-09-21T18:31:06;12.10;90.70
33011;DHT22;19370;48.562;9.196;2022-09-21T18:33:57;12.00;90.90
33011;DHT22;19370;48.562;9.196;2022-09-21T18:36:35;11.90;91.00
33011;DHT22;19370;48.562;9.196;2022-09-21T18:39:14;11.80;91.20
33011;DHT22;19370;48.562;9.196;2022-09-21T18:44:34;11.70;91.80
33011;DHT22;19370;48.562;9.196;2022-09-21T18:47:11;11.70;92.30
33011;DHT22;19370;48.562;9.196;2022-09-21T18:55:01;11.50;94.40
33011;DHT22;19370;48.562;9.196;2022-09-21T18:57:27;11.40;94.70
33011;DHT22;19370;48.562;9.196;2022-09-21T18:59:57;11.40;95.30
33011;DHT22;19370;48.562;9.196;2022-09-21T19:02:24;11.30;95.90
33011;DHT22;19370;48.562;9.196;2022-09-21T19:04:53;11.20;96.30
33011;DHT22;19370;48.562;9.196;2022-09-21T19:07:36;11.20;96.90
33011;DHT22;19370;48.562;9.196;2022-09-21T19:10:24;11.10;97.30
33011;DHT22;19370;48.562;9.196;2022-09-21T19:15:36;11.10;98.30
33011;DHT22;19370;48.562;9.196;2022-09-21T19:18:50;11.00;97.90
33011;DHT22;19370;48.562;9.196;2022-09-21T19:31:43;10.90;98.70
33011;DHT22;19370;48.562;9.196;2022-09-21T19:34:18;10.80;99.00
33011;DHT22;19370;48.562;9.196;2022-09-21T19:36:45;10.80;99.60